This is the latest recevied weather packets stored in our database for station/object KF7PIZ. If no packets are shown the sender has not sent any weather packets the latest 10 day(s).
| Time | Temp. | Humidity | Pressure | Rain* | Wind** | Luminosity | Snow |
|---|---|---|---|---|---|---|---|
| 1777220458 | 10° C | 49% | 1009 hPa | 0 mm | - | 534 W/m² | - |
| 1777220158 | 10° C | 50% | 1008.9 hPa | 0 mm | - | 151 W/m² | - |
| 1777219855 | 10° C | 51% | 1008.9 hPa | 0 mm | - | 134 W/m² | - |
| 1777219552 | 10° C | 50% | 1009 hPa | 0 mm | - | 115 W/m² | - |
| 1777219249 | 10° C | 49% | 1008.9 hPa | 0 mm | - | 100 W/m² | - |
| 1777218944 | 10.56° C | 48% | 1008.6 hPa | 0 mm | - | 103 W/m² | - |
| 1777218641 | 10.56° C | 50% | 1008.8 hPa | 0 mm | - | 236 W/m² | - |
| 1777218336 | 11.11° C | 48% | 1008.6 hPa | 0 mm | - | 179 W/m² | - |
| 1777218033 | 11.11° C | 52% | 1008.6 hPa | 0 mm | - | 159 W/m² | - |
| 1777217728 | 11.11° C | 50% | 1008.9 hPa | 0 mm | - | 135 W/m² | - |
| 1777217425 | 10.56° C | 49% | 1008.4 hPa | 0 mm | - | 189 W/m² | - |
| 1777217121 | 9.44° C | 53% | 1008.6 hPa | 0 mm | - | 263 W/m² | - |
| 1777216817 | 8.89° C | 55% | 1008.6 hPa | 0 mm | - | 137 W/m² | - |
| 1777216515 | 8.33° C | 56% | 1008.8 hPa | 0 mm | - | 117 W/m² | - |
| 1777216210 | 8.33° C | 56% | 1008.5 hPa | 0 mm | - | 111 W/m² | - |
| 1777215909 | 8.33° C | 59% | 1008.5 hPa | 0 mm | - | 152 W/m² | - |
| 1777215605 | 7.78° C | 60% | 1008.8 hPa | 0 mm | - | 207 W/m² | - |
| 1777215300 | 6.67° C | 63% | 1008.4 hPa | 0 mm | - | 103 W/m² | - |
| 1777214997 | 6.67° C | 64% | 1008.5 hPa | 0 mm | - | 52 W/m² | - |
| 1777214697 | 6.67° C | 63% | 1008.3 hPa | 0 mm | - | 58 W/m² | - |
| 1777214390 | 6.11° C | 64% | 1008.6 hPa | 0 mm | - | 56 W/m² | - |
| 1777214091 | 6.11° C | 66% | 1008.3 hPa | 0 mm | - | 43 W/m² | - |
| 1777213790 | 6.11° C | 65% | 1008.3 hPa | 0 mm | - | 26 W/m² | - |
| 1777213486 | 6.11° C | 65% | 1008.4 hPa | 0 mm | - | 32 W/m² | - |
| 1777213184 | 6.11° C | 66% | 1008.4 hPa | 0 mm | - | 38 W/m² | - |
* Rain latest hour (hover to see other rain measurements)
** Current wind speed in m/s (hover to see current wind gust speed)